createdAt,value
2023-04-04T00:00:47.591Z,13.93
2023-04-04T00:01:49.561Z,15.07
2023-04-04T00:02:51.807Z,13.55
2023-04-04T00:03:57.792Z,14.32
2023-04-04T00:04:59.634Z,12.50
2023-04-04T00:06:01.375Z,14.63
2023-04-04T00:07:03.184Z,14.82
2023-04-04T00:08:05.113Z,14.88
2023-04-04T00:09:06.784Z,13.82
2023-04-04T00:10:09.138Z,14.55
2023-04-04T00:11:11.237Z,13.23
2023-04-04T00:12:13.017Z,13.18
2023-04-04T00:13:14.997Z,12.85
2023-04-04T00:14:17.349Z,12.93
2023-04-04T00:15:19.288Z,13.68
2023-04-04T00:16:21.090Z,13.38
2023-04-04T00:17:22.848Z,14.52
2023-04-04T00:18:24.537Z,13.35
2023-04-04T00:19:26.263Z,12.77
2023-04-04T00:20:27.968Z,13.65
2023-04-04T00:21:30.640Z,13.23
2023-04-04T00:22:32.439Z,13.50
2023-04-04T00:23:34.308Z,11.82
2023-04-04T00:24:36.181Z,13.38
2023-04-04T00:25:38.436Z,14.73
2023-04-04T00:26:40.122Z,14.27
2023-04-04T00:27:41.903Z,14.13
2023-04-04T00:28:43.705Z,15.55
2023-04-04T00:29:45.749Z,17.40
2023-04-04T00:30:48.261Z,16.05
2023-04-04T00:31:50.114Z,16.25
2023-04-04T00:32:51.981Z,17.42
2023-04-04T00:33:53.806Z,19.05
2023-04-04T00:34:57.358Z,17.33
2023-04-04T00:35:59.790Z,18.77
2023-04-04T00:37:01.561Z,20.95
2023-04-04T00:38:03.271Z,19.25
2023-04-04T00:39:04.955Z,20.08
2023-04-04T00:40:08.662Z,22.58
2023-04-04T00:41:11.598Z,24.02
2023-04-04T00:42:13.394Z,22.42
2023-04-04T00:43:16.435Z,22.88
2023-04-04T00:44:18.510Z,24.92
2023-04-04T00:45:20.423Z,25.73
2023-04-04T00:46:23.492Z,24.55
2023-04-04T00:47:30.002Z,27.05
2023-04-04T00:48:32.284Z,26.77
2023-04-04T00:49:34.687Z,25.60
2023-04-04T00:50:36.498Z,24.90
2023-04-04T00:51:38.341Z,28.05
2023-04-04T00:52:40.068Z,26.25
2023-04-04T00:53:46.384Z,28.30
2023-04-04T00:54:48.171Z,28.65
2023-04-04T00:55:50.084Z,29.70
2023-04-04T00:56:55.603Z,30.83
2023-04-04T00:57:58.939Z,30.50
2023-04-04T00:59:01.098Z,32.05
2023-04-04T01:00:05.685Z,30.55
2023-04-04T01:01:08.074Z,32.97
2023-04-04T01:02:09.987Z,34.80
2023-04-04T01:03:12.952Z,35.67
2023-04-04T01:04:15.593Z,35.80
2023-04-04T01:05:17.633Z,35.90
2023-04-04T01:06:20.503Z,35.47
2023-04-04T01:07:22.346Z,38.33
2023-04-04T01:08:27.300Z,39.13
2023-04-04T01:09:29.362Z,38.05
2023-04-04T01:10:31.720Z,38.97
2023-04-04T01:11:35.307Z,41.28
2023-04-04T01:12:37.074Z,39.78
2023-04-04T01:13:38.814Z,37.80
2023-04-04T01:14:40.700Z,37.10
2023-04-04T01:15:43.452Z,37.85
2023-04-04T01:16:46.751Z,37.50
2023-04-04T01:17:49.538Z,37.55
2023-04-04T01:18:54.131Z,35.13
2023-04-04T01:20:11.264Z,35.70
2023-04-04T01:21:17.240Z,36.90
2023-04-04T01:22:20.183Z,32.70
2023-04-04T01:23:24.721Z,34.55
2023-04-04T01:24:28.515Z,33.15
2023-04-04T01:25:34.858Z,33.03
2023-04-04T01:26:37.568Z,35.13
2023-04-04T01:27:39.464Z,33.25
2023-04-04T01:28:41.369Z,32.35
2023-04-04T01:29:43.116Z,31.38
2023-04-04T01:30:45.748Z,32.55
2023-04-04T01:31:58.642Z,32.03
2023-04-04T01:33:14.125Z,32.65
2023-04-04T01:34:47.309Z,33.72
2023-04-04T01:36:04.062Z,32.47
2023-04-04T01:37:18.496Z,33.05
2023-04-04T01:38:44.354Z,35.15
2023-04-04T01:39:54.172Z,33.58
2023-04-04T01:41:08.251Z,33.17
2023-04-04T01:42:11.474Z,31.33
2023-04-04T01:43:13.613Z,31.70
2023-04-04T01:44:17.773Z,30.80
2023-04-04T01:45:21.573Z,30.25
2023-04-04T01:46:23.624Z,31.55
2023-04-04T01:47:25.445Z,29.33
2023-04-04T01:48:27.552Z,29.00
2023-04-04T01:49:30.008Z,30.92
2023-04-04T01:50:32.057Z,31.20
2023-04-04T01:51:34.700Z,29.75
2023-04-04T01:52:36.694Z,29.20
2023-04-04T01:53:38.755Z,28.65
2023-04-04T01:54:40.580Z,29.38
2023-04-04T01:55:42.578Z,28.98
2023-04-04T01:56:44.263Z,31.05
2023-04-04T01:57:46.317Z,33.00
2023-04-04T01:58:48.557Z,35.47
2023-04-04T01:59:50.427Z,36.30
2023-04-04T02:00:52.171Z,38.22
2023-04-04T02:01:53.923Z,37.83
2023-04-04T02:02:56.270Z,36.50
2023-04-04T02:03:58.346Z,35.40
2023-04-04T02:05:00.125Z,33.42
2023-04-04T02:06:02.199Z,32.45
2023-04-04T02:07:04.015Z,36.53
2023-04-04T02:08:05.900Z,35.95
2023-04-04T02:09:07.637Z,32.88
2023-04-04T02:10:09.651Z,34.53
2023-04-04T02:11:12.429Z,34.65
2023-04-04T02:12:14.251Z,35.70
2023-04-04T02:13:15.963Z,35.72
2023-04-04T02:14:17.638Z,32.05
2023-04-04T02:15:19.559Z,35.28
2023-04-04T02:16:21.448Z,34.88
2023-04-04T02:17:23.359Z,33.58
2023-04-04T02:18:26.085Z,32.15
2023-04-04T02:19:27.787Z,33.10
2023-04-04T02:20:29.940Z,34.00
2023-04-04T02:21:31.678Z,33.78
2023-04-04T02:22:33.463Z,34.47
2023-04-04T02:23:35.164Z,32.00
2023-04-04T02:24:36.883Z,34.35
2023-04-04T02:25:38.657Z,33.25
2023-04-04T02:26:40.740Z,31.95
2023-04-04T02:27:42.425Z,29.58
2023-04-04T02:28:44.147Z,33.40
2023-04-04T02:29:45.831Z,32.17
2023-04-04T02:30:47.511Z,31.30
2023-04-04T02:31:49.243Z,30.35
2023-04-04T02:32:51.238Z,26.58
2023-04-04T02:33:53.008Z,30.17
2023-04-04T02:34:54.696Z,30.67
2023-04-04T02:36:00.526Z,30.80
2023-04-04T02:37:02.474Z,26.20
2023-04-04T02:38:04.207Z,25.05
2023-04-04T02:39:05.992Z,24.70
2023-04-04T02:40:08.551Z,24.15
2023-04-04T02:41:10.691Z,24.50
2023-04-04T02:42:12.483Z,22.60
2023-04-04T02:43:14.234Z,22.92
2023-04-04T02:44:15.920Z,22.02
2023-04-04T02:45:17.737Z,23.92
2023-04-04T02:46:21.892Z,22.92
2023-04-04T02:47:23.916Z,21.80
2023-04-04T02:48:25.988Z,24.08
2023-04-04T02:49:29.615Z,24.27
2023-04-04T02:50:31.516Z,21.80
2023-04-04T02:51:33.683Z,24.38
2023-04-04T02:52:35.449Z,22.73
2023-04-04T02:53:37.442Z,23.70
2023-04-04T02:54:39.212Z,24.17
2023-04-04T02:55:41.057Z,22.40
2023-04-04T02:56:42.879Z,24.98
2023-04-04T02:57:51.219Z,22.42
2023-04-04T02:58:53.011Z,23.60
2023-04-04T02:59:54.761Z,24.90
2023-04-04T03:00:56.826Z,25.27
2023-04-04T03:01:58.585Z,23.77
2023-04-04T03:03:00.431Z,23.17
2023-04-04T03:04:04.546Z,21.67
2023-04-04T03:05:07.112Z,23.35
2023-04-04T03:06:09.077Z,24.00
2023-04-04T03:07:11.456Z,26.92
2023-04-04T03:08:13.131Z,26.80
2023-04-04T03:09:15.147Z,27.73
2023-04-04T03:10:16.897Z,27.55
2023-04-04T03:11:21.567Z,29.40
2023-04-04T03:12:23.388Z,25.63
2023-04-04T03:13:25.111Z,21.25
2023-04-04T03:14:26.910Z,22.50
2023-04-04T03:15:29.100Z,24.13
2023-04-04T03:16:31.070Z,22.30
2023-04-04T03:17:32.882Z,23.23
2023-04-04T03:18:34.852Z,24.63
2023-04-04T03:19:36.741Z,22.02
2023-04-04T03:20:38.620Z,21.92
2023-04-04T03:21:40.463Z,21.52
2023-04-04T03:22:42.667Z,21.83
2023-04-04T03:23:44.368Z,26.95
2023-04-04T03:24:46.197Z,20.73
2023-04-04T03:25:47.922Z,19.88
2023-04-04T03:26:49.667Z,24.13
2023-04-04T03:27:51.775Z,21.25
2023-04-04T03:28:53.452Z,21.10
2023-04-04T03:29:55.193Z,23.77
2023-04-04T03:30:56.863Z,22.95
2023-04-04T03:31:58.596Z,23.55
2023-04-04T03:33:05.004Z,28.17
2023-04-04T03:34:06.725Z,25.63
2023-04-04T03:35:08.797Z,26.13
2023-04-04T03:36:14.028Z,26.48
2023-04-04T03:37:15.740Z,27.25
2023-04-04T03:38:18.356Z,25.17
2023-04-04T03:39:20.073Z,28.08
2023-04-04T03:40:21.911Z,27.27
2023-04-04T03:41:23.800Z,28.00
2023-04-04T03:42:26.933Z,25.88
2023-04-04T03:43:28.636Z,27.42
2023-04-04T03:44:30.517Z,27.27
2023-04-04T03:45:35.883Z,28.15
2023-04-04T03:46:37.663Z,27.58
2023-04-04T03:47:39.419Z,29.00
2023-04-04T03:48:41.123Z,25.42
2023-04-04T03:49:42.794Z,27.75
2023-04-04T03:50:44.470Z,28.70
2023-04-04T03:51:46.209Z,28.60
2023-04-04T03:52:48.345Z,27.48
2023-04-04T03:53:50.020Z,27.92
2023-04-04T03:54:51.749Z,27.20
2023-04-04T03:55:56.219Z,28.08
2023-04-04T03:56:58.159Z,27.08
2023-04-04T03:57:59.931Z,26.35
2023-04-04T03:59:01.692Z,26.38
2023-04-04T04:00:04.909Z,26.73
2023-04-04T04:01:06.785Z,27.30
2023-04-04T04:02:08.615Z,27.27
2023-04-04T04:03:10.587Z,26.63
2023-04-04T04:04:12.510Z,25.65
2023-04-04T04:05:14.420Z,25.38
2023-04-04T04:06:16.192Z,24.13
2023-04-04T04:07:17.967Z,26.33
2023-04-04T04:08:19.904Z,25.70
2023-04-04T04:09:21.608Z,24.50
2023-04-04T04:10:23.397Z,24.42
2023-04-04T04:11:25.131Z,21.60
2023-04-04T04:12:27.290Z,22.67
2023-04-04T04:13:29.446Z,23.63
2023-04-04T04:14:31.315Z,24.13
2023-04-04T04:15:33.085Z,25.63
2023-04-04T04:16:34.912Z,24.90
2023-04-04T04:17:40.933Z,25.10
2023-04-04T04:18:42.780Z,24.95
2023-04-04T04:19:44.500Z,26.88
2023-04-04T04:20:46.303Z,23.65
2023-04-04T04:21:48.256Z,25.00
2023-04-04T04:22:51.018Z,27.50
2023-04-04T04:23:54.339Z,26.92
2023-04-04T04:24:56.021Z,34.17
2023-04-04T04:25:57.782Z,32.05
2023-04-04T04:26:59.502Z,34.65
2023-04-04T04:28:01.187Z,38.75
2023-04-04T04:29:02.913Z,37.70
2023-04-04T04:30:05.336Z,39.10
2023-04-04T04:31:08.562Z,40.50
2023-04-04T04:32:10.874Z,42.03
2023-04-04T04:33:13.079Z,41.97
2023-04-04T04:34:15.460Z,43.50
2023-04-04T04:35:17.167Z,42.05
2023-04-04T04:36:19.092Z,44.08
2023-04-04T04:37:20.869Z,44.08
2023-04-04T04:38:22.615Z,43.38
2023-04-04T04:39:24.360Z,46.10
2023-04-04T04:40:26.087Z,45.55
2023-04-04T04:41:29.403Z,51.95
2023-04-04T04:42:31.652Z,52.63
2023-04-04T04:43:33.345Z,50.58
2023-04-04T04:44:35.073Z,52.67
2023-04-04T04:45:36.830Z,51.47
2023-04-04T04:46:38.857Z,52.30
2023-04-04T04:47:41.031Z,50.72
2023-04-04T04:48:42.842Z,54.85
2023-04-04T04:49:48.210Z,54.38
2023-04-04T04:50:49.906Z,54.30
2023-04-04T04:51:51.578Z,52.75
2023-04-04T04:52:53.293Z,54.20
2023-04-04T04:53:55.029Z,54.72
2023-04-04T04:54:56.770Z,51.20
2023-04-04T04:55:58.583Z,53.65
2023-04-04T04:57:01.534Z,51.33
2023-04-04T04:58:04.461Z,49.28
2023-04-04T04:59:07.625Z,49.75
2023-04-04T05:00:10.242Z,50.55
2023-04-04T05:01:12.102Z,49.90
2023-04-04T05:02:13.837Z,47.65
2023-04-04T05:03:15.832Z,46.80
2023-04-04T05:04:17.840Z,45.72
2023-04-04T05:05:19.611Z,45.20
2023-04-04T05:06:21.758Z,46.13
2023-04-04T05:07:23.846Z,45.22
2023-04-04T05:08:25.579Z,47.08
2023-04-04T05:09:27.457Z,46.13
2023-04-04T05:10:29.936Z,44.63
2023-04-04T05:11:31.711Z,45.40
2023-04-04T05:12:33.409Z,47.72
2023-04-04T05:13:35.124Z,45.17
2023-04-04T05:14:36.848Z,45.85
2023-04-04T05:15:38.867Z,43.05
2023-04-04T05:16:40.587Z,43.65
2023-04-04T05:17:42.719Z,41.50
2023-04-04T05:18:44.419Z,41.30
2023-04-04T05:19:46.643Z,40.70
2023-04-04T05:20:55.145Z,41.30
2023-04-04T05:21:56.839Z,40.88
2023-04-04T05:22:58.517Z,38.65
2023-04-04T05:24:00.212Z,40.20
2023-04-04T05:25:01.929Z,38.67
2023-04-04T05:26:03.914Z,37.63
2023-04-04T05:27:05.806Z,40.08
2023-04-04T05:28:08.212Z,41.25
2023-04-04T05:29:09.922Z,39.03
2023-04-04T05:30:12.679Z,39.22
2023-04-04T05:31:14.936Z,39.53
2023-04-04T05:32:16.630Z,40.25
2023-04-04T05:33:18.357Z,38.42
2023-04-04T05:34:20.089Z,39.22
2023-04-04T05:35:21.804Z,39.85
2023-04-04T05:36:23.557Z,38.85
2023-04-04T05:37:25.306Z,38.20
2023-04-04T05:38:27.326Z,39.40
2023-04-04T05:39:29.250Z,38.63
2023-04-04T05:40:33.279Z,41.00
2023-04-04T05:41:34.986Z,39.80
2023-04-04T05:42:36.683Z,40.90
2023-04-04T05:43:38.363Z,41.20
2023-04-04T05:44:40.142Z,38.42
2023-04-04T05:45:42.027Z,37.55
2023-04-04T05:46:44.071Z,38.47
2023-04-04T05:47:46.055Z,38.13
2023-04-04T05:48:47.814Z,37.95
2023-04-04T05:49:49.563Z,38.05
2023-04-04T05:50:51.272Z,35.85
2023-04-04T05:51:56.622Z,35.92
2023-04-04T05:52:58.962Z,35.10
2023-04-04T05:54:00.642Z,35.33
2023-04-04T05:55:02.485Z,35.03
2023-04-04T05:56:04.364Z,34.58
2023-04-04T05:57:06.063Z,34.25
2023-04-04T05:58:07.800Z,33.17
2023-04-04T05:59:09.572Z,33.08
2023-04-04T06:00:12.116Z,33.92
2023-04-04T06:01:13.831Z,32.88
2023-04-04T06:02:15.632Z,33.60
2023-04-04T06:03:19.685Z,30.73
2023-04-04T06:04:23.056Z,31.85
2023-04-04T06:05:25.441Z,32.33
2023-04-04T06:06:27.724Z,31.67
2023-04-04T06:07:29.516Z,30.95
2023-04-04T06:08:35.351Z,31.35
2023-04-04T06:09:43.768Z,34.60
2023-04-04T06:10:45.643Z,33.35
2023-04-04T06:11:47.362Z,35.13
2023-04-04T06:12:49.062Z,31.83
2023-04-04T06:13:51.574Z,33.72
2023-04-04T06:14:53.291Z,31.77
2023-04-04T06:15:55.002Z,31.75
2023-04-04T06:16:57.421Z,33.33
2023-04-04T06:17:59.190Z,33.97
2023-04-04T06:19:01.216Z,33.25
2023-04-04T06:20:05.228Z,31.35
2023-04-04T06:21:06.983Z,30.67
2023-04-04T06:22:08.707Z,33.60
2023-04-04T06:23:10.446Z,32.75
2023-04-04T06:24:12.195Z,34.33
2023-04-04T06:25:14.752Z,34.42
2023-04-04T06:26:16.777Z,31.83
2023-04-04T06:27:18.524Z,30.90
2023-04-04T06:28:20.482Z,33.25
2023-04-04T06:29:22.202Z,35.65
2023-04-04T06:30:23.939Z,35.08
2023-04-04T06:31:25.657Z,33.28
2023-04-04T06:32:28.279Z,31.33
2023-04-04T06:33:30.078Z,33.45
2023-04-04T06:34:32.141Z,35.85
2023-04-04T06:35:33.848Z,33.97
2023-04-04T06:36:35.632Z,35.30
2023-04-04T06:37:37.338Z,33.72
2023-04-04T06:38:39.123Z,33.45
2023-04-04T06:39:41.013Z,34.03
2023-04-04T06:40:43.041Z,34.78
2023-04-04T06:41:44.788Z,37.00
2023-04-04T06:42:50.641Z,35.65
2023-04-04T06:43:52.452Z,38.28
2023-04-04T06:44:54.134Z,35.45
2023-04-04T06:45:56.057Z,37.22
2023-04-04T06:46:58.288Z,34.75
2023-04-04T06:48:00.257Z,34.50
2023-04-04T06:49:02.019Z,33.95
2023-04-04T06:50:04.171Z,34.67
2023-04-04T06:51:09.285Z,34.95
2023-04-04T06:52:11.248Z,35.03
2023-04-04T06:53:13.543Z,33.92
2023-04-04T06:54:15.285Z,34.80
2023-04-04T06:55:18.022Z,32.72
2023-04-04T06:56:19.840Z,34.95
2023-04-04T06:57:21.626Z,33.13
2023-04-04T06:58:23.417Z,33.58
2023-04-04T06:59:25.169Z,32.72
2023-04-04T07:00:27.185Z,33.72
2023-04-04T07:01:29.098Z,31.92
2023-04-04T07:02:31.551Z,30.85
2023-04-04T07:03:33.385Z,31.70
2023-04-04T07:04:35.371Z,34.22
2023-04-04T07:05:40.157Z,30.92
2023-04-04T07:06:42.422Z,31.77
2023-04-04T07:07:46.431Z,33.25
2023-04-04T07:08:48.200Z,32.47
2023-04-04T07:09:49.904Z,31.17
2023-04-04T07:10:51.693Z,31.38
2023-04-04T07:11:53.433Z,30.05
2023-04-04T07:12:55.152Z,30.73
2023-04-04T07:13:56.993Z,29.75
2023-04-04T07:14:58.676Z,28.80
2023-04-04T07:16:00.478Z,29.50
2023-04-04T07:17:10.636Z,27.95
2023-04-04T07:18:19.070Z,27.52
2023-04-04T07:19:24.197Z,29.10
2023-04-04T07:20:28.501Z,28.17
2023-04-04T07:21:30.620Z,29.15
2023-04-04T07:22:32.397Z,28.13
2023-04-04T07:23:34.180Z,29.02
2023-04-04T07:24:36.062Z,28.55
2023-04-04T07:25:38.718Z,28.10
2023-04-04T07:26:41.024Z,29.27
2023-04-04T07:27:42.910Z,26.02
2023-04-04T07:28:44.659Z,29.40
2023-04-04T07:29:46.865Z,26.33
2023-04-04T07:30:48.737Z,27.30
2023-04-04T07:31:51.269Z,27.45
2023-04-04T07:33:00.404Z,26.75
2023-04-04T07:34:02.247Z,28.42
2023-04-04T07:35:08.220Z,28.50
2023-04-04T07:36:10.153Z,26.52
2023-04-04T07:37:12.478Z,25.85
2023-04-04T07:38:14.281Z,27.35
2023-04-04T07:39:15.970Z,26.85
2023-04-04T07:40:18.183Z,29.50
2023-04-04T07:41:21.404Z,29.20
2023-04-04T07:42:23.438Z,29.95
2023-04-04T07:43:25.149Z,32.58
2023-04-04T07:44:26.864Z,30.85
2023-04-04T07:45:28.563Z,31.23
2023-04-04T07:46:30.290Z,32.22
2023-04-04T07:47:32.593Z,36.20
2023-04-04T07:48:34.388Z,32.97
2023-04-04T07:49:38.873Z,31.75
2023-04-04T07:50:40.898Z,31.40
2023-04-04T07:51:43.016Z,30.77
2023-04-04T07:52:51.518Z,31.42
2023-04-04T07:53:53.236Z,31.40
2023-04-04T07:54:55.362Z,28.13
2023-04-04T07:55:57.082Z,26.88
2023-04-04T07:56:58.781Z,22.95
2023-04-04T07:58:00.474Z,22.92
2023-04-04T07:59:02.373Z,24.10
2023-04-04T08:00:06.242Z,22.50
2023-04-04T08:01:07.949Z,21.95
2023-04-04T08:02:09.672Z,23.27
2023-04-04T08:03:12.575Z,20.38
2023-04-04T08:04:14.475Z,22.70
2023-04-04T08:05:16.345Z,20.48
2023-04-04T08:06:18.102Z,23.63
2023-04-04T08:07:19.849Z,22.17
2023-04-04T08:08:21.886Z,20.63
2023-04-04T08:09:23.705Z,19.08
2023-04-04T08:10:25.568Z,20.52
2023-04-04T08:11:27.489Z,16.90
2023-04-04T08:12:29.296Z,22.55
2023-04-04T08:13:31.592Z,21.38
2023-04-04T08:14:36.631Z,21.35
2023-04-04T08:15:38.893Z,19.98
2023-04-04T08:16:41.066Z,18.52
2023-04-04T08:17:43.776Z,18.48
2023-04-04T08:18:45.626Z,21.02
2023-04-04T08:19:47.311Z,17.77
2023-04-04T08:20:49.601Z,19.60
2023-04-04T08:21:51.703Z,18.55
2023-04-04T08:22:53.761Z,20.73
2023-04-04T08:23:55.886Z,20.10
2023-04-04T08:24:57.575Z,19.90
2023-04-04T08:26:00.299Z,20.25
2023-04-04T08:27:05.522Z,17.73
2023-04-04T08:28:07.591Z,16.75
2023-04-04T08:29:10.338Z,17.58
2023-04-04T08:30:14.455Z,18.67
2023-04-04T08:31:17.095Z,17.98
2023-04-04T08:32:18.940Z,17.02
2023-04-04T08:33:24.383Z,17.95
2023-04-04T08:34:30.981Z,18.10
2023-04-04T08:35:32.689Z,17.67
2023-04-04T08:36:35.814Z,18.13
2023-04-04T08:37:37.564Z,18.40
2023-04-04T08:38:39.235Z,18.25
2023-04-04T08:39:40.919Z,17.10
2023-04-04T08:40:46.588Z,19.75
2023-04-04T08:41:57.832Z,20.20
2023-04-04T08:44:05.253Z,18.38
2023-04-04T08:45:10.004Z,17.42
2023-04-04T08:46:12.927Z,18.55
2023-04-04T08:47:16.667Z,19.77
2023-04-04T08:48:20.269Z,18.90
2023-04-04T08:49:24.090Z,20.45
2023-04-04T08:50:27.023Z,20.70
2023-04-04T08:51:31.961Z,20.08
2023-04-04T08:52:35.463Z,18.85
2023-04-04T08:53:37.734Z,17.67
2023-04-04T08:54:41.831Z,18.75
2023-04-04T08:55:43.902Z,15.98
2023-04-04T08:56:46.491Z,17.80
2023-04-04T08:57:48.597Z,17.17
2023-04-04T08:58:50.700Z,16.90
2023-04-04T08:59:52.576Z,16.88
2023-04-04T09:00:55.335Z,17.02
2023-04-04T09:02:09.032Z,17.60
2023-04-04T09:03:20.527Z,16.48
2023-04-04T09:04:23.053Z,17.67
2023-04-04T09:05:25.783Z,16.67
2023-04-04T09:06:28.570Z,17.42
2023-04-04T09:07:31.280Z,17.88
2023-04-04T09:08:33.351Z,16.38
2023-04-04T09:09:37.967Z,17.77
2023-04-04T09:10:44.125Z,16.48
2023-04-04T09:11:47.392Z,18.15
2023-04-04T09:12:51.860Z,17.35
2023-04-04T09:13:56.272Z,17.27
2023-04-04T09:15:00.138Z,17.60
2023-04-04T09:16:02.144Z,16.10
2023-04-04T09:17:03.845Z,16.35
2023-04-04T09:18:05.601Z,16.98
2023-04-04T09:19:07.343Z,19.60
2023-04-04T09:20:44.036Z,17.05
2023-04-04T09:21:49.832Z,17.23
2023-04-04T09:22:51.652Z,17.40
2023-04-04T09:24:00.404Z,17.77
2023-04-04T09:25:02.163Z,15.63
2023-04-04T09:26:04.815Z,16.23
2023-04-04T09:27:11.353Z,16.33
2023-04-04T09:28:15.129Z,16.55
2023-04-04T09:29:23.531Z,16.50
2023-04-04T09:30:25.666Z,15.38
2023-04-04T09:31:27.557Z,16.60
2023-04-04T09:32:29.303Z,16.13
2023-04-04T09:33:32.221Z,15.57
2023-04-04T09:34:34.077Z,16.02
2023-04-04T09:35:45.359Z,14.73
2023-04-04T09:36:47.791Z,15.70
2023-04-04T09:37:49.699Z,15.00
2023-04-04T09:38:53.917Z,15.70
2023-04-04T09:39:56.600Z,16.20
2023-04-04T09:40:58.843Z,15.88
2023-04-04T09:42:01.633Z,15.15
2023-04-04T09:43:07.463Z,14.10
2023-04-04T09:44:13.252Z,15.95
2023-04-04T09:45:22.359Z,15.82
2023-04-04T09:46:32.424Z,15.40
2023-04-04T09:47:34.242Z,15.77
2023-04-04T09:48:37.234Z,15.98
2023-04-04T09:49:39.715Z,15.02
2023-04-04T09:50:47.012Z,15.20
2023-04-04T09:51:53.015Z,13.85
2023-04-04T09:53:00.780Z,15.57
2023-04-04T09:54:03.654Z,13.80
2023-04-04T09:55:06.728Z,14.43
2023-04-04T09:56:09.064Z,14.95
2023-04-04T09:57:11.644Z,15.73
2023-04-04T09:58:16.617Z,15.55
2023-04-04T09:59:18.863Z,15.43
2023-04-04T10:00:21.215Z,13.77
2023-04-04T10:01:24.565Z,13.88
2023-04-04T10:02:27.218Z,13.05
2023-04-04T10:03:30.489Z,14.20
2023-04-04T10:04:33.002Z,13.73
2023-04-04T10:05:35.698Z,15.00
2023-04-04T10:06:38.613Z,13.93
2023-04-04T10:07:42.453Z,14.65
2023-04-04T10:08:45.607Z,14.10
2023-04-04T10:09:52.919Z,14.55
2023-04-04T10:11:11.454Z,14.70
2023-04-04T10:12:15.124Z,15.23
2023-04-04T10:13:28.353Z,14.70
2023-04-04T10:14:36.718Z,14.70
2023-04-04T10:15:38.684Z,15.82
2023-04-04T10:16:45.620Z,16.38
2023-04-04T10:17:48.352Z,16.92
2023-04-04T10:18:51.562Z,16.35
2023-04-04T10:19:54.171Z,16.95
2023-04-04T10:21:12.285Z,15.65
2023-04-04T10:22:17.738Z,15.30
2023-04-04T10:23:20.710Z,13.98
2023-04-04T10:24:22.553Z,13.95
2023-04-04T10:25:24.576Z,14.50
2023-04-04T10:26:26.469Z,14.30
2023-04-04T10:27:28.525Z,14.80
2023-04-04T10:28:30.542Z,14.02
2023-04-04T10:29:32.652Z,14.80
2023-04-04T10:30:49.823Z,13.75
2023-04-04T10:32:02.733Z,15.43
2023-04-04T10:33:13.888Z,15.27
2023-04-04T10:35:24.479Z,14.32
2023-04-04T10:36:31.619Z,15.68
2023-04-04T10:37:40.857Z,15.23
2023-04-04T10:38:45.278Z,15.68
2023-04-04T10:39:54.263Z,17.23
2023-04-04T10:41:00.101Z,16.25
2023-04-04T10:42:05.963Z,16.23
2023-04-04T10:43:08.501Z,15.13
2023-04-04T10:44:43.733Z,15.98
2023-04-04T10:45:46.048Z,16.15
2023-04-04T10:46:53.200Z,15.80
2023-04-04T10:47:56.004Z,14.65
2023-04-04T10:49:01.957Z,15.80
2023-04-04T10:50:10.470Z,15.52
2023-04-04T10:51:12.789Z,16.00
2023-04-04T10:52:18.483Z,15.85
2023-04-04T10:53:21.940Z,14.50
2023-04-04T10:54:29.295Z,15.57
2023-04-04T10:55:32.500Z,15.95
2023-04-04T10:56:36.080Z,14.95
2023-04-04T10:57:43.459Z,15.10
2023-04-04T10:58:45.442Z,14.82
2023-04-04T11:00:10.883Z,15.25
2023-04-04T11:01:16.448Z,14.77
2023-04-04T11:02:18.374Z,15.40
2023-04-04T11:03:20.104Z,16.45
2023-04-04T11:04:29.221Z,16.60
2023-04-04T11:05:42.518Z,18.65
2023-04-04T11:07:18.998Z,15.57
2023-04-04T11:08:25.490Z,13.98
2023-04-04T11:09:53.286Z,14.25
2023-04-04T11:10:57.494Z,13.63
2023-04-04T11:12:09.824Z,13.80
2023-04-04T11:13:35.880Z,14.25
2023-04-04T11:14:37.723Z,13.20
2023-04-04T11:15:58.010Z,13.50
2023-04-04T11:17:01.023Z,14.07
2023-04-04T11:18:17.936Z,14.68
2023-04-04T11:19:30.460Z,14.38
2023-04-04T11:20:37.939Z,13.43
2023-04-04T11:21:39.883Z,14.43
2023-04-04T11:22:42.890Z,12.43
2023-04-04T11:23:56.514Z,12.95
2023-04-04T11:25:00.889Z,12.55
2023-04-04T11:26:03.651Z,14.07
2023-04-04T11:27:08.057Z,13.50
2023-04-04T11:28:17.654Z,13.75
2023-04-04T11:29:42.454Z,14.77
2023-04-04T11:30:48.558Z,15.30
2023-04-04T11:31:51.458Z,13.65
2023-04-04T11:33:05.966Z,15.00
2023-04-04T11:34:29.301Z,14.00
2023-04-04T11:35:31.060Z,13.27
2023-04-04T11:36:35.618Z,14.75
2023-04-04T11:38:04.457Z,13.10
2023-04-04T11:39:19.913Z,13.10
2023-04-04T11:40:36.056Z,13.02
2023-04-04T11:41:44.090Z,14.82
2023-04-04T11:42:52.603Z,14.88
2023-04-04T11:43:54.308Z,15.13
2023-04-04T11:44:55.935Z,14.40
2023-04-04T11:46:06.952Z,14.80
2023-04-04T11:47:11.253Z,15.35
2023-04-04T11:48:15.696Z,13.70
2023-04-04T11:49:17.498Z,15.30
2023-04-04T11:50:20.994Z,15.00
2023-04-04T11:51:23.065Z,13.57
2023-04-04T11:52:25.576Z,14.35
2023-04-04T11:53:31.092Z,12.27
2023-04-04T11:54:32.932Z,12.40
2023-04-04T11:55:43.028Z,11.63
2023-04-04T11:56:46.007Z,12.27
2023-04-04T11:57:48.291Z,12.98
2023-04-04T11:59:01.634Z,13.13
2023-04-04T12:00:09.018Z,12.60
2023-04-04T12:01:13.477Z,12.75
2023-04-04T12:02:34.479Z,12.60
2023-04-04T12:03:36.384Z,11.35
2023-04-04T12:04:43.751Z,11.68
2023-04-04T12:05:46.875Z,11.90
2023-04-04T12:06:53.960Z,11.82
2023-04-04T12:07:55.780Z,12.13
2023-04-04T12:08:57.743Z,11.32
2023-04-04T12:09:59.626Z,11.88
2023-04-04T12:11:07.109Z,11.60
2023-04-04T12:12:16.447Z,11.18
2023-04-04T12:13:18.376Z,11.10
2023-04-04T12:14:22.164Z,11.32
2023-04-04T12:15:23.876Z,10.10
2023-04-04T12:16:28.536Z,11.52
2023-04-04T12:17:30.929Z,10.93
2023-04-04T12:18:33.008Z,11.23
2023-04-04T12:19:39.371Z,12.10
2023-04-04T12:20:43.478Z,10.20
2023-04-04T12:21:46.670Z,11.90
2023-04-04T12:22:52.100Z,11.65
2023-04-04T12:23:56.574Z,11.90
2023-04-04T12:25:01.539Z,12.30
2023-04-04T12:26:05.775Z,12.27
2023-04-04T12:27:08.004Z,11.88
2023-04-04T12:28:11.153Z,11.32
2023-04-04T12:29:15.438Z,12.48
2023-04-04T12:30:18.031Z,12.23
2023-04-04T12:31:19.984Z,12.98
2023-04-04T12:32:22.750Z,11.00
2023-04-04T12:33:24.605Z,9.23
2023-04-04T12:35:38.000Z,7.60
2023-04-04T12:36:41.466Z,5.78
2023-04-04T12:37:58.368Z,4.70
2023-04-04T12:39:01.008Z,3.88
2023-04-04T12:40:03.183Z,3.92
2023-04-04T12:41:09.818Z,3.70
2023-04-04T12:42:12.329Z,3.55
2023-04-04T12:43:17.638Z,4.47
2023-04-04T12:44:39.533Z,5.05
2023-04-04T12:45:42.619Z,5.75
2023-04-04T12:46:47.272Z,5.97
2023-04-04T12:47:58.084Z,6.00
2023-04-04T12:48:59.977Z,5.37
2023-04-04T12:50:02.083Z,5.85
2023-04-04T12:51:05.184Z,5.38
2023-04-04T12:52:16.361Z,5.30
2023-04-04T12:54:29.128Z,5.60
2023-04-04T12:55:31.648Z,5.95
2023-04-04T12:56:35.701Z,5.65
2023-04-04T12:57:39.677Z,5.20
2023-04-04T12:58:41.505Z,5.35
2023-04-04T12:59:47.633Z,5.10
2023-04-04T13:00:52.430Z,6.38
2023-04-04T13:01:54.370Z,6.43
2023-04-04T13:02:56.588Z,6.03
2023-04-04T13:04:03.157Z,5.28
2023-04-04T13:05:07.545Z,5.10
2023-04-04T13:06:32.934Z,4.68
2023-04-04T13:07:43.007Z,4.65
2023-04-04T13:08:54.874Z,4.07
2023-04-04T13:10:04.034Z,3.28
2023-04-04T13:11:07.068Z,4.28
2023-04-04T13:12:08.818Z,4.22
2023-04-04T13:13:10.589Z,3.53
2023-04-04T13:14:14.519Z,4.60
2023-04-04T13:15:16.974Z,3.80
2023-04-04T13:16:37.193Z,4.07
2023-04-04T13:17:44.363Z,4.72
2023-04-04T13:18:48.461Z,4.78
2023-04-04T13:19:50.575Z,4.53
2023-04-04T13:20:54.286Z,5.28
2023-04-04T13:21:56.722Z,4.35
2023-04-04T13:22:58.713Z,3.95
2023-04-04T13:24:02.931Z,4.35
2023-04-04T13:25:06.361Z,3.65
2023-04-04T13:26:10.829Z,3.90
2023-04-04T13:27:12.567Z,3.70
2023-04-04T13:28:14.562Z,4.22
2023-04-04T13:29:16.415Z,4.53
2023-04-04T13:30:18.184Z,4.35
2023-04-04T13:31:20.208Z,5.18
2023-04-04T13:32:22.042Z,4.47
2023-04-04T13:33:23.862Z,4.82
2023-04-04T13:34:27.421Z,4.50
2023-04-04T13:35:29.568Z,3.95
2023-04-04T13:36:31.494Z,4.13
2023-04-04T13:37:33.254Z,3.17
2023-04-04T13:38:35.187Z,2.83
2023-04-04T13:39:37.094Z,2.95
2023-04-04T13:40:38.836Z,3.33
2023-04-04T13:41:40.763Z,2.60
2023-04-04T13:42:42.687Z,2.65
2023-04-04T13:43:44.428Z,2.90
2023-04-04T13:44:46.135Z,2.50
2023-04-04T13:45:47.923Z,2.90
2023-04-04T13:46:49.905Z,2.70
2023-04-04T13:47:51.852Z,2.55